Energy Commander — MDWV2 — position and weather

sailwx.info

Track history (hours):
 
Tides and Currents Weather Stations Pressure Air Temp Water Temp Dewpoint Dewpoint Depression Visibility Wind Speed Wind Dir Waves Ship Positions

Energy Commander

Last reported at 2018-Jan-23 23:11 UTC. Time now 2018-Jan-24 04:05 UTC.
Position N 27°49' W 097°29'.

Length 228 m; draft 8 m.

Type: Tanker. MMSI: 235849000.

Date/timePositionNaut miles runAvg speedWind from/ knotsBaromVisibWave heightAir tempDewpointWater temp
2018-Jan-23 23:11N 27°49' W 097°29'0 0.0
2018-Jan-23 22:56N 27°49' W 097°29'0 0.0
2018-Jan-23 21:36N 27°49' W 097°29'0 0.1
2018-Jan-23 21:30N 27°49' W 097°29'1 2.2
2018-Jan-23 20:50N 27°49' W 097°27'2 5.1
2018-Jan-23 20:30N 27°49' W 097°25'4 7.6
2018-Jan-23 19:59N 27°49' W 097°21'511.3
2018-Jan-23 19:30N 27°49' W 097°15'510.3
2018-Jan-23 19:00N 27°50' W 097°09'5 9.8
2018-Jan-23 18:29N 27°51' W 097°04'611.0
2018-Jan-23 17:59N 27°48' W 096°58'5 8.9
2018-Jan-23 17:27N 27°46' W 096°53'2 5.0
2018-Jan-23 17:00N 27°45' W 096°51'612.3
2018-Jan-23 16:30N 27°42' W 096°45'612.3
2018-Jan-23 15:59N 27°39' W 096°38'612.4
2018-Jan-23 15:29N 27°36' W 096°32'612.6
2018-Jan-23 14:59N 27°33' W 096°26'612.8
2018-Jan-23 14:29N 27°30' W 096°19'612.8
2018-Jan-23 13:59N 27°27' W 096°13'  
Track history (hours):
 
Tides and Currents Weather Stations Pressure Air Temp Water Temp Dewpoint Dewpoint Depression Visibility Wind Speed Wind Dir Waves Ship Positions

Energy Commander

Last reported at 2018-Jan-23 23:11 UTC. Time now 2018-Jan-24 04:05 UTC.
Position N 27°49' W 097°29'.

Length 228 m; draft 8 m.

Type: Tanker. MMSI: 235849000.

Date/timePositionNaut miles runAvg speedWind from/ knotsBaromVisibWave heightAir tempDewpointWater temp
2018-Jan-23 23:11N 27°49' W 097°29'0 0.0
2018-Jan-23 22:56N 27°49' W 097°29'0 0.0
2018-Jan-23 21:36N 27°49' W 097°29'0 0.1
2018-Jan-23 21:30N 27°49' W 097°29'1 2.2
2018-Jan-23 20:50N 27°49' W 097°27'2 5.1
2018-Jan-23 20:30N 27°49' W 097°25'4 7.6
2018-Jan-23 19:59N 27°49' W 097°21'511.3
2018-Jan-23 19:30N 27°49' W 097°15'510.3
2018-Jan-23 19:00N 27°50' W 097°09'5 9.8
2018-Jan-23 18:29N 27°51' W 097°04'611.0
2018-Jan-23 17:59N 27°48' W 096°58'5 8.9
2018-Jan-23 17:27N 27°46' W 096°53'2 5.0
2018-Jan-23 17:00N 27°45' W 096°51'612.3
2018-Jan-23 16:30N 27°42' W 096°45'612.3
2018-Jan-23 15:59N 27°39' W 096°38'612.4
2018-Jan-23 15:29N 27°36' W 096°32'612.6
2018-Jan-23 14:59N 27°33' W 096°26'612.8
2018-Jan-23 14:29N 27°30' W 096°19'612.8
2018-Jan-23 13:59N 27°27' W 096°13'  

Dump ship's entire track history